Time;durP1;ratioP1;P1;durP2;ratioP2;P2;SDS_P1;SDS_P2;PMS_P1;PMS_P2;Temp;Humidity;BMP_temperature;BMP_pressure;BME280_temperature;BME280_humidity;BME280_pressure;Samples;Min_cycle;Max_cycle;Signal;HPM_P1;HPM_P2
2021/09/06 00:00:34;;;;;;;4.35;2.65;;;;;;;6.04;70.44;98133.56;1839124;77;27508;-88
2021/09/06 00:03:03;;;;;;;3.30;2.55;;;;;;;5.99;70.44;98119.84;1815215;77;25752;-89
2021/09/06 00:05:29;;;;;;;5.60;3.02;;;;;;;5.93;70.49;98123.16;1807706;77;25756;-88
2021/09/06 00:07:56;;;;;;;4.30;2.45;;;;;;;5.88;70.56;98124.64;1827840;77;26567;-89
2021/09/06 00:10:44;;;;;;;2.92;2.17;;;;;;;5.84;70.78;98124.63;1811602;77;25762;-89
2021/09/06 00:13:16;;;;;;;3.98;2.55;;;;;;;5.83;70.83;98123.78;1809970;77;27481;-87
2021/09/06 00:15:43;;;;;;;5.15;2.42;;;;;;;5.80;70.85;98124.11;1816865;77;25772;-87
2021/09/06 00:18:10;;;;;;;3.67;2.45;;;;;;;5.75;70.90;98127.30;1818186;77;25772;-87
2021/09/06 00:20:39;;;;;;;6.65;2.87;;;;;;;5.75;70.88;98126.45;1831184;77;25917;-87
2021/09/06 00:23:06;;;;;;;4.83;2.52;;;;;;;5.72;70.84;98124.09;1805552;77;26004;-87
2021/09/06 00:25:32;;;;;;;4.17;2.62;;;;;;;5.65;70.75;98125.77;1815131;77;27652;-86
2021/09/06 00:27:59;;;;;;;4.17;2.50;;;;;;;5.62;70.82;98121.56;1804256;77;26314;-87
2021/09/06 00:30:25;;;;;;;6.58;3.00;;;;;;;5.57;70.75;98129.23;1817283;77;26296;-88
2021/09/06 00:32:52;;;;;;;4.55;2.42;;;;;;;5.47;70.74;98125.85;1816601;77;25812;-88
2021/09/06 00:35:19;;;;;;;4.30;2.45;;;;;;;5.43;70.92;98123.19;1816464;77;25673;-88
2021/09/06 00:37:45;;;;;;;4.60;2.72;;;;;;;5.42;71.05;98126.36;1824903;77;27481;-88
2021/09/06 00:40:13;;;;;;;6.30;2.52;;;;;;;5.42;71.13;98120.16;1816006;77;25973;-88
2021/09/06 00:42:40;;;;;;;7.05;2.62;;;;;;;5.41;71.13;98124.68;1818985;77;25747;-87
2021/09/06 00:45:08;;;;;;;4.90;2.45;;;;;;;5.40;71.07;98126.17;1818454;77;26702;-87
2021/09/06 00:47:35;;;;;;;3.85;2.40;;;;;;;5.37;71.15;98131.84;1820926;77;25747;-85
2021/09/06 00:50:06;;;;;;;3.17;2.40;;;;;;;5.37;71.20;98127.33;1819603;77;28120;-88
2021/09/06 00:52:30;;;;;;;4.53;2.12;;;;;;;5.34;71.14;98120.95;1828209;77;25686;-87
2021/09/06 00:54:59;;;;;;;7.30;2.40;;;;;;;5.32;71.09;98122.94;1843656;77;25760;-82
2021/09/06 00:57:25;;;;;;;3.17;2.00;;;;;;;5.30;71.23;98126.31;1813322;77;25785;-87
2021/09/06 00:59:52;;;;;;;5.12;2.27;;;;;;;5.30;71.29;98124.97;1811896;77;25772;-87
2021/09/06 01:02:18;;;;;;;2.80;2.15;;;;;;;5.28;71.22;98130.14;1843121;77;28424;-82
2021/09/06 01:04:45;;;;;;;4.35;2.50;;;;;;;5.23;71.23;98129.27;1811594;77;25798;-87
2021/09/06 01:07:12;;;;;;;5.72;1.92;;;;;;;5.20;71.25;98126.91;1835286;77;25717;-88
2021/09/06 01:09:39;;;;;;;4.80;2.37;;;;;;;5.16;71.32;98121.55;1827914;77;26603;-89
2021/09/06 01:12:07;;;;;;;4.10;2.22;;;;;;;5.12;71.45;98129.55;1844996;77;25263;-88
2021/09/06 01:14:33;;;;;;;7.00;2.50;;;;;;;5.12;71.54;98126.87;1831395;77;28114;-88
2021/09/06 01:17:01;;;;;;;4.05;2.60;;;;;;;5.11;71.53;98123.86;1835606;77;25980;-87
2021/09/06 01:19:27;;;;;;;3.22;2.17;;;;;;;5.10;71.58;98122.17;1834152;77;26205;-88
2021/09/06 01:21:54;;;;;;;4.40;2.80;;;;;;;5.07;71.57;98123.86;1833065;77;26056;-87
2021/09/06 01:24:22;;;;;;;6.03;2.83;;;;;;;5.03;71.59;98130.02;1813593;77;25624;-88
2021/09/06 01:26:49;;;;;;;4.22;2.50;;;;;;;4.96;71.59;98130.79;1811695;77;27598;-87
2021/09/06 01:29:16;;;;;;;3.35;2.17;;;;;;;4.95;71.80;98126.47;1840579;77;25789;-87
2021/09/06 01:31:43;;;;;;;3.83;2.70;;;;;;;4.93;71.79;98127.95;1830488;77;25748;-87
2021/09/06 01:34:11;;;;;;;4.47;2.40;;;;;;;4.92;71.71;98126.77;1830870;77;25868;-87
2021/09/06 01:36:38;;;;;;;7.97;2.50;;;;;;;4.90;71.72;98128.77;1818545;77;25323;-87
2021/09/06 01:39:06;;;;;;;4.15;2.50;;;;;;;4.84;71.80;98122.19;1822004;77;27578;-85
2021/09/06 01:41:33;;;;;;;3.67;2.02;;;;;;;4.83;71.84;98125.05;1839779;77;26412;-87
2021/09/06 01:44:00;;;;;;;3.83;2.12;;;;;;;4.81;71.89;98122.53;1831548;77;25720;-88
2021/09/06 01:46:29;;;;;;;4.08;2.10;;;;;;;4.81;72.00;98119.02;1816495;77;25870;-88
2021/09/06 01:48:57;;;;;;;5.08;2.60;;;;;;;4.81;71.90;98119.02;1826461;77;25768;-88
2021/09/06 01:51:25;;;;;;;5.03;2.70;;;;;;;4.81;72.04;98121.69;1833284;77;27364;-87
2021/09/06 01:53:53;;;;;;;4.78;2.12;;;;;;;4.79;72.00;98125.02;1823238;77;25779;-87
2021/09/06 01:56:20;;;;;;;4.40;2.40;;;;;;;4.74;71.95;98120.13;1835312;77;25818;-87
2021/09/06 01:58:48;;;;;;;3.12;2.08;;;;;;;4.71;71.98;98126.63;1847291;76;25755;-87
2021/09/06 02:01:15;;;;;;;4.12;2.40;;;;;;;4.69;71.98;98127.30;1821032;77;25670;-87
2021/09/06 02:03:42;;;;;;;4.62;2.55;;;;;;;4.68;72.00;98129.64;1839517;77;27438;-84
2021/09/06 02:06:09;;;;;;;4.60;2.50;;;;;;;4.67;72.05;98127.95;1843160;77;25301;-86
2021/09/06 02:08:36;;;;;;;2.62;1.95;;;;;;;4.65;71.90;98133.11;1814504;77;26085;-85
2021/09/06 02:11:03;;;;;;;3.42;2.22;;;;;;;4.60;72.02;98134.06;1838227;77;25709;-85
2021/09/06 02:13:30;;;;;;;4.85;2.60;;;;;;;4.58;72.12;98134.25;1841037;77;25766;-87
2021/09/06 02:15:57;;;;;;;6.33;2.80;;;;;;;4.54;72.11;98136.88;1847228;77;28419;-87
2021/09/06 02:18:23;;;;;;;3.30;2.37;;;;;;;4.52;72.03;98133.52;1847307;77;25660;-87
2021/09/06 02:20:50;;;;;;;3.22;1.77;;;;;;;4.50;71.96;98138.18;1847197;76;25735;-87
2021/09/06 02:23:16;;;;;;;4.30;2.37;;;;;;;4.46;71.90;98139.50;1823755;77;25839;-87
2021/09/06 02:25:43;;;;;;;3.10;2.08;;;;;;;4.42;71.95;98139.46;1799904;77;25738;-87
2021/09/06 02:28:09;;;;;;;2.70;2.30;;;;;;;4.41;72.05;98136.44;1819200;77;28247;-87
2021/09/06 02:30:36;;;;;;;4.03;2.10;;;;;;;4.37;72.14;98132.39;1837676;77;26083;-88
2021/09/06 02:33:03;;;;;;;2.80;2.05;;;;;;;4.37;72.18;98136.40;1814529;77;25744;-87
2021/09/06 02:35:29;;;;;;;4.90;2.37;;;;;;;4.38;72.22;98129.22;1816964;76;25745;-87
2021/09/06 02:37:56;;;;;;;4.78;1.98;;;;;;;4.36;72.24;98132.05;1835077;76;25695;-86
2021/09/06 02:40:23;;;;;;;3.08;2.35;;;;;;;4.34;72.13;98132.23;1822633;77;26986;-87
2021/09/06 02:42:50;;;;;;;4.53;2.45;;;;;;;4.31;72.12;98129.86;1846592;76;25683;-86
2021/09/06 02:45:16;;;;;;;3.98;2.45;;;;;;;4.27;72.03;98131.64;1846615;76;25688;-87
2021/09/06 02:47:48;;;;;;;4.10;2.17;;;;;;;4.23;72.15;98136.45;1846280;77;25884;-86
2021/09/06 02:50:15;;;;;;;5.75;2.77;;;;;;;4.22;72.15;98135.30;1816175;77;25436;-87
2021/09/06 02:52:42;;;;;;;3.87;2.10;;;;;;;4.20;72.27;98139.95;1846736;77;27594;-86
2021/09/06 02:55:10;;;;;;;3.87;2.10;;;;;;;4.16;72.24;98146.08;1834152;77;25659;-88
2021/09/06 02:57:36;;;;;;;7.87;2.40;;;;;;;4.15;72.32;98138.22;1827251;76;25807;-84
2021/09/06 03:00:04;;;;;;;3.80;2.37;;;;;;;4.13;72.35;98147.72;1838207;77;26478;-86
2021/09/06 03:02:31;;;;;;;5.70;2.22;;;;;;;4.10;72.30;98146.70;1822680;76;25920;-86
2021/09/06 03:04:58;;;;;;;6.33;2.70;;;;;;;4.09;72.34;98145.52;1846259;76;28389;-86
2021/09/06 03:07:24;;;;;;;3.55;1.87;;;;;;;4.07;72.38;98140.33;1807495;77;25822;-84
2021/09/06 03:09:51;;;;;;;5.83;2.02;;;;;;;4.06;72.34;98135.13;1799642;76;25675;-85
2021/09/06 03:12:18;;;;;;;2.70;2.25;;;;;;;4.03;72.42;98134.09;1807456;77;26373;-84
2021/09/06 03:14:44;;;;;;;4.12;1.87;;;;;;;3.99;72.42;98132.22;1828421;77;25719;-85
2021/09/06 03:17:11;;;;;;;3.17;1.98;;;;;;;3.96;72.37;98135.22;1838949;77;27521;-85
2021/09/06 03:19:38;;;;;;;4.08;2.33;;;;;;;3.91;72.33;98128.98;1831598;77;25699;-83
2021/09/06 03:22:04;;;;;;;2.70;1.92;;;;;;;3.88;72.46;98138.63;1844346;76;25754;-87
2021/09/06 03:24:31;;;;;;;3.22;2.30;;;;;;;3.87;72.48;98135.61;1828832;77;25737;-86
2021/09/06 03:26:57;;;;;;;3.02;2.20;;;;;;;3.88;72.55;98135.95;1813659;76;26671;-86
2021/09/06 03:29:24;;;;;;;2.65;1.85;;;;;;;3.87;72.61;98138.28;1846969;77;27939;-86
2021/09/06 03:31:50;;;;;;;4.62;2.50;;;;;;;3.87;72.57;98136.94;1846475;77;25733;-85
2021/09/06 03:34:17;;;;;;;2.98;2.00;;;;;;;3.83;72.55;98136.92;1846808;77;26227;-86
2021/09/06 03:36:43;;;;;;;4.75;2.40;;;;;;;3.82;72.57;98141.08;1819298;76;25888;-84
2021/09/06 03:39:10;;;;;;;3.60;2.22;;;;;;;3.78;72.61;98141.86;1808977;77;25740;-85
2021/09/06 03:41:37;;;;;;;5.83;1.98;;;;;;;3.76;72.66;98143.00;1825640;77;26822;-85
2021/09/06 03:44:03;;;;;;;2.67;2.00;;;;;;;3.73;72.65;98143.32;1818393;77;25697;-84
2021/09/06 03:46:30;;;;;;;3.08;2.50;;;;;;;3.72;72.72;98138.48;1814497;76;25649;-85
2021/09/06 03:48:57;;;;;;;5.65;2.10;;;;;;;3.71;72.69;98143.47;1823978;76;26457;-85
2021/09/06 03:51:24;;;;;;;3.05;2.15;;;;;;;3.67;72.74;98150.58;1846881;77;25660;-85
2021/09/06 03:53:50;;;;;;;3.20;2.10;;;;;;;3.64;72.75;98150.38;1846800;77;28197;-83
2021/09/06 03:56:17;;;;;;;7.87;2.00;;;;;;;3.60;72.83;98151.20;1819736;76;25776;-84
2021/09/06 03:58:45;;;;;;;4.28;2.30;;;;;;;3.62;72.87;98151.86;1801383;76;25681;-85
2021/09/06 04:01:11;;;;;;;6.03;2.52;;;;;;;3.60;72.78;98144.52;1831362;77;26299;-85
2021/09/06 04:03:38;;;;;;;3.60;1.70;;;;;;;3.55;72.86;98157.95;1845599;76;25771;-85
2021/09/06 04:06:04;;;;;;;6.17;2.20;;;;;;;3.54;72.91;98157.11;1846418;77;28256;-84
2021/09/06 04:08:31;;;;;;;2.67;2.05;;;;;;;3.50;72.97;98155.72;1834804;77;25774;-84
2021/09/06 04:10:58;;;;;;;6.70;2.20;;;;;;;3.48;73.05;98157.73;1811200;77;25767;-85
2021/09/06 04:13:25;;;;;;;4.78;2.52;;;;;;;3.49;73.11;98159.91;1827362;77;25726;-85
2021/09/06 04:15:51;;;;;;;5.92;2.47;;;;;;;3.48;73.20;98159.06;1818053;77;25747;-85
2021/09/06 04:18:18;;;;;;;4.25;2.35;;;;;;;3.49;73.17;98161.23;1840214;77;28161;-85
2021/09/06 04:20:44;;;;;;;9.30;3.20;;;;;;;3.49;73.18;98161.23;1823443;77;25995;-84
2021/09/06 04:23:12;;;;;;;4.90;2.92;;;;;;;3.50;73.21;98165.59;1818175;77;25724;-85
2021/09/06 04:25:38;;;;;;;7.12;2.85;;;;;;;3.51;73.28;98163.23;1809899;77;25813;-85
2021/09/06 04:28:05;;;;;;;6.28;3.00;;;;;;;3.52;73.25;98163.09;1822087;77;25710;-86
2021/09/06 04:30:32;;;;;;;7.53;2.77;;;;;;;3.51;73.28;98164.08;1838694;76;27509;-84
2021/09/06 04:32:58;;;;;;;6.55;3.37;;;;;;;3.49;73.33;98161.23;1826094;77;25818;-85
2021/09/06 04:35:26;;;;;;;8.23;3.47;;;;;;;3.47;73.46;98168.55;1799298;77;25736;-84
2021/09/06 04:37:53;;;;;;;5.90;3.17;;;;;;;3.47;73.56;98168.55;1815081;76;26558;-85
2021/09/06 04:40:19;;;;;;;10.55;4.67;;;;;;;3.47;73.73;98166.72;1846006;77;25672;-84
2021/09/06 04:42:46;;;;;;;12.13;5.05;;;;;;;3.49;73.75;98166.09;1813445;76;27588;-85
2021/09/06 04:45:12;;;;;;;18.52;6.60;;;;;;;3.53;73.84;98169.27;1825180;76;26242;-85
2021/09/06 04:47:39;;;;;;;19.10;8.98;;;;;;;3.55;73.78;98170.81;1829180;77;26114;-85
2021/09/06 04:50:07;;;;;;;20.20;8.95;;;;;;;3.58;73.78;98172.35;1846611;77;26613;-84
2021/09/06 04:52:33;;;;;;;19.25;7.67;;;;;;;3.59;73.85;98172.70;1846793;77;25755;-85
2021/09/06 04:55:00;;;;;;;12.43;7.10;;;;;;;3.62;73.90;98174.55;1843110;77;27259;-83
2021/09/06 04:57:26;;;;;;;10.03;5.42;;;;;;;3.63;73.93;98164.22;1830587;76;25711;-86
2021/09/06 04:59:53;;;;;;;8.33;4.40;;;;;;;3.64;73.98;98173.07;1841278;76;25700;-86
2021/09/06 05:02:20;;;;;;;7.97;3.70;;;;;;;3.67;74.10;98175.95;1810041;77;26430;-84
2021/09/06 05:04:46;;;;;;;6.75;3.50;;;;;;;3.69;74.12;98178.82;1847985;76;25675;-85
2021/09/06 05:07:13;;;;;;;10.35;4.83;;;;;;;3.70;74.19;98179.17;1799200;77;28422;-85
2021/09/06 05:09:40;;;;;;;9.33;5.08;;;;;;;3.74;74.25;98177.89;1831644;77;25238;-86
2021/09/06 05:12:06;;;;;;;9.68;4.70;;;;;;;3.77;74.34;98169.55;1846667;77;25837;-85
2021/09/06 05:14:34;;;;;;;10.13;4.55;;;;;;;3.80;74.40;98174.61;1846815;76;26529;-86
2021/09/06 05:17:00;;;;;;;8.65;4.30;;;;;;;3.82;74.48;98171.30;1810138;76;25785;-84
2021/09/06 05:19:27;;;;;;;6.47;4.03;;;;;;;3.87;74.61;98177.00;1809563;77;27350;-87
2021/09/06 05:21:53;;;;;;;8.30;4.70;;;;;;;3.91;74.70;98173.55;1805907;77;26272;-88
2021/09/06 05:24:20;;;;;;;8.63;5.03;;;;;;;3.95;74.72;98178.94;1846781;76;25686;-87
2021/09/06 05:26:46;;;;;;;13.03;5.72;;;;;;;4.03;74.82;98183.52;1846763;76;26213;-87
2021/09/06 05:29:13;;;;;;;11.12;5.45;;;;;;;4.11;74.92;98180.92;1817544;77;25779;-88
2021/09/06 05:31:40;;;;;;;11.97;5.37;;;;;;;4.18;74.98;98178.00;1833614;77;27371;-88
2021/09/06 05:34:06;;;;;;;8.20;5.40;;;;;;;4.26;75.02;98173.56;1824308;77;25791;-87
2021/09/06 05:36:33;;;;;;;16.75;5.10;;;;;;;4.35;75.08;98163.77;1823440;77;25303;-86
2021/09/06 05:38:59;;;;;;;8.20;5.10;;;;;;;4.43;75.10;98169.21;1811555;77;26620;-87
2021/09/06 05:41:26;;;;;;;10.72;5.20;;;;;;;4.50;75.19;98170.26;1814010;77;25738;-87
2021/09/06 05:43:52;;;;;;;9.08;5.00;;;;;;;4.56;75.22;98166.98;1830270;77;27526;-87
2021/09/06 05:46:19;;;;;;;14.03;4.65;;;;;;;4.63;75.34;98163.17;1807044;77;25846;-86
2021/09/06 05:48:46;;;;;;;8.88;4.33;;;;;;;4.70;75.43;98162.91;1828694;76;25770;-85
2021/09/06 05:51:12;;;;;;;10.08;5.25;;;;;;;4.75;75.39;98157.08;1847316;77;25890;-88
2021/09/06 05:53:39;;;;;;;10.03;5.20;;;;;;;4.84;75.46;98164.99;1847344;77;25782;-88
2021/09/06 05:56:05;;;;;;;10.90;4.42;;;;;;;4.93;75.43;98161.89;1794572;78;27398;-88
2021/09/06 05:58:33;;;;;;;8.28;4.72;;;;;;;5.02;75.57;98162.28;1770796;78;26005;-88
2021/09/06 06:01:00;;;;;;;8.23;4.28;;;;;;;5.12;75.62;98163.00;1813771;77;25744;-88
2021/09/06 06:03:26;;;;;;;5.50;3.77;;;;;;;5.21;75.79;98168.73;1810345;77;25717;-89
2021/09/06 06:05:53;;;;;;;6.58;4.20;;;;;;;5.31;75.84;98162.76;1827789;77;25755;-89
2021/09/06 06:08:20;;;;;;;7.30;4.20;;;;;;;5.38;75.88;98159.80;1829578;77;27510;-89
2021/09/06 06:10:47;;;;;;;8.83;4.28;;;;;;;5.46;76.00;98158.14;1832808;77;25730;-88
2021/09/06 06:13:14;;;;;;;6.25;4.15;;;;;;;5.56;76.03;98152.16;1829367;77;25685;-86
2021/09/06 06:15:40;;;;;;;9.83;4.53;;;;;;;5.66;76.13;98149.70;1827180;77;25797;-81
2021/09/06 06:18:07;;;;;;;11.15;4.55;;;;;;;5.76;76.16;98145.55;1833061;77;25699;-88
2021/09/06 06:20:33;;;;;;;9.65;5.17;;;;;;;5.90;76.18;98151.66;1836507;77;27291;-89
2021/09/06 06:23:00;;;;;;;10.03;5.42;;;;;;;6.00;76.12;98140.28;1833111;77;25675;-89
2021/09/06 06:25:26;;;;;;;12.30;7.10;;;;;;;6.12;76.14;98140.30;1829634;77;26330;-89
2021/09/06 06:27:53;;;;;;;9.85;6.12;;;;;;;6.23;76.20;98135.61;1826346;77;26589;-83
2021/09/06 06:30:20;;;;;;;7.40;4.35;;;;;;;6.35;76.18;98139.64;1810687;77;25680;-87
2021/09/06 06:32:47;;;;;;;9.15;4.03;;;;;;;6.45;76.17;98141.16;1819707;77;27422;-88
2021/09/06 06:35:14;;;;;;;6.67;4.22;;;;;;;6.58;76.09;98135.79;1815939;77;25520;-89
2021/09/06 06:37:41;;;;;;;11.03;3.98;;;;;;;6.69;76.15;98133.59;1836309;77;25936;-90
2021/09/06 06:40:09;;;;;;;7.92;4.62;;;;;;;6.83;76.23;98134.25;1840823;77;26297;-89
2021/09/06 06:42:35;;;;;;;9.45;4.87;;;;;;;6.95;76.21;98139.27;1840917;77;25809;-85
2021/09/06 06:45:02;;;;;;;8.53;3.98;;;;;;;7.04;76.03;98144.44;1840841;77;28339;-89
2021/09/06 06:47:28;;;;;;;7.95;4.22;;;;;;;7.16;76.21;98147.60;1840670;77;25846;-87
2021/09/06 06:49:55;;;;;;;4.90;3.62;;;;;;;7.28;75.99;98143.54;1840915;77;25727;-88
2021/09/06 06:52:21;;;;;;;9.73;3.87;;;;;;;7.40;75.98;98148.87;1840925;77;25919;-89
2021/09/06 06:54:48;;;;;;;7.30;3.33;;;;;;;7.51;75.88;98147.15;1835030;77;25720;-88
2021/09/06 06:57:14;;;;;;;5.20;3.45;;;;;;;7.65;75.80;98147.43;1828496;77;27408;-89
2021/09/06 06:59:41;;;;;;;4.15;3.20;;;;;;;7.80;75.68;98150.56;1830828;77;25273;-87
2021/09/06 07:02:08;;;;;;;4.12;2.83;;;;;;;7.94;75.70;98148.98;1820271;77;25742;-88
2021/09/06 07:04:34;;;;;;;5.80;3.33;;;;;;;8.06;75.55;98145.38;1763677;79;26490;-89
2021/09/06 07:07:01;;;;;;;5.33;2.87;;;;;;;8.19;75.28;98143.78;1788137;80;25761;-88
2021/09/06 07:09:27;;;;;;;6.33;3.25;;;;;;;8.35;75.28;98142.84;1819451;76;27415;-88
2021/09/06 07:11:54;;;;;;;6.12;3.98;;;;;;;8.49;75.32;98140.72;1795789;79;25899;-87
2021/09/06 07:14:21;;;;;;;5.20;3.33;;;;;;;8.64;75.13;98139.42;1779460;78;25254;-85
2021/09/06 07:16:47;;;;;;;5.87;3.80;;;;;;;8.82;75.03;98145.30;1783290;78;25720;-88
2021/09/06 07:19:14;;;;;;;7.00;3.72;;;;;;;8.98;74.67;98145.67;1801094;79;25750;-88
2021/09/06 07:21:40;;;;;;;5.25;3.65;;;;;;;9.12;74.62;98144.02;1800955;79;27331;-89
2021/09/06 07:24:07;;;;;;;6.20;3.05;;;;;;;9.27;74.74;98148.92;1791781;79;25745;-85
2021/09/06 07:26:34;;;;;;;6.92;3.85;;;;;;;9.47;74.68;98147.33;1786296;79;25689;-82
2021/09/06 07:29:01;;;;;;;7.22;3.77;;;;;;;9.68;74.53;98149.27;1786722;78;25693;-89
2021/09/06 07:31:28;;;;;;;6.00;4.00;;;;;;;9.92;74.14;98153.50;1800746;79;25649;-87
2021/09/06 07:33:54;;;;;;;7.92;4.12;;;;;;;10.20;73.92;98156.36;1796551;78;28153;-88
2021/09/06 07:36:21;;;;;;;8.03;4.08;;;;;;;10.55;73.67;98153.30;1793741;79;26009;-87
2021/09/06 07:38:47;;;;;;;9.03;3.65;;;;;;;10.92;72.88;98146.27;1777798;79;26559;-89
2021/09/06 07:41:14;;;;;;;8.33;3.65;;;;;;;11.36;72.65;98156.75;1796279;79;26219;-89
2021/09/06 07:43:43;;;;;;;9.40;3.72;;;;;;;11.85;72.30;98155.81;1801367;79;26253;-88
2021/09/06 07:46:09;;;;;;;6.95;3.10;;;;;;;12.36;71.83;98153.50;1801212;79;27475;-90
2021/09/06 07:48:36;;;;;;;7.70;3.58;;;;;;;12.87;71.15;98151.09;1801354;79;25729;-88
2021/09/06 07:51:02;;;;;;;6.42;3.37;;;;;;;13.34;70.52;98155.47;1801432;79;25663;-89
2021/09/06 07:53:29;;;;;;;6.33;4.03;;;;;;;13.81;70.27;98156.20;1801266;79;25904;-89
2021/09/06 07:55:55;;;;;;;7.72;4.95;;;;;;;14.18;69.55;98145.61;1784509;79;25697;-87
2021/09/06 07:58:22;;;;;;;14.58;9.65;;;;;;;14.62;69.17;98149.66;1794586;79;27448;-82
2021/09/06 08:00:48;;;;;;;13.72;8.18;;;;;;;15.04;68.14;98145.92;1786897;79;25884;-86
2021/09/06 08:03:15;;;;;;;8.70;5.12;;;;;;;15.34;67.76;98148.25;1797001;79;25741;-88
2021/09/06 08:05:42;;;;;;;10.55;6.83;;;;;;;15.72;67.20;98150.83;1799634;79;26502;-82
2021/09/06 08:08:08;;;;;;;24.07;15.35;;;;;;;16.16;66.38;98143.42;1793217;79;26199;-87
2021/09/06 08:10:35;;;;;;;16.97;11.22;;;;;;;16.60;65.49;98147.63;1791750;79;27432;-89
2021/09/06 08:13:02;;;;;;;16.45;10.45;;;;;;;16.95;64.81;98142.84;1800824;79;25688;-89
2021/09/06 08:15:29;;;;;;;22.27;14.43;;;;;;;17.36;63.67;98136.48;1798611;79;26372;-89
2021/09/06 08:17:57;;;;;;;18.12;12.15;;;;;;;17.72;62.86;98141.73;1764284;78;26287;-88
2021/09/06 08:20:25;;;;;;;5.62;4.60;;;;;;;18.00;61.34;98139.59;1791118;79;26846;-88
2021/09/06 08:22:52;;;;;;;5.90;3.60;;;;;;;18.26;61.29;98142.31;1792098;79;27577;-86
2021/09/06 08:25:19;;;;;;;4.10;3.15;;;;;;;18.68;60.69;98148.37;1796813;79;26041;-82
2021/09/06 08:27:46;;;;;;;7.75;4.45;;;;;;;19.10;59.98;98148.00;1788801;78;26439;-88
2021/09/06 08:30:13;;;;;;;13.83;9.50;;;;;;;19.47;59.21;98150.52;1795719;79;25856;-82
2021/09/06 08:32:43;;;;;;;15.78;7.80;;;;;;;19.84;58.30;98152.20;1789893;78;26247;-83
2021/09/06 08:35:11;;;;;;;9.98;7.35;;;;;;;20.65;56.43;98149.69;1801079;79;27504;-86
2021/09/06 08:37:39;;;;;;;8.73;5.87;;;;;;;20.65;56.43;98149.69;1799241;79;25876;-92
2021/09/06 08:40:09;;;;;;;10.38;6.83;;;;;;;20.95;55.35;98152.73;1788776;79;25830;-90
2021/09/06 08:42:38;;;;;;;9.10;6.25;;;;;;;21.20;54.49;98150.25;1801547;79;25867;-92
2021/09/06 08:45:07;;;;;;;7.03;5.10;;;;;;;21.41;53.88;98140.80;1797259;79;25698;-92
2021/09/06 08:47:34;;;;;;;15.58;9.00;;;;;;;21.58;52.98;98136.53;1801498;79;28141;-93
2021/09/06 08:50:06;;;;;;;12.37;9.05;;;;;;;21.66;52.13;98138.23;1801407;79;26073;-94
2021/09/06 08:52:32;;;;;;;4.80;3.85;;;;;;;21.60;51.50;98141.22;1781325;79;25756;-95
2021/09/06 08:54:59;;;;;;;4.22;2.72;;;;;;;21.58;51.40;98141.48;1798415;79;25909;-91
2021/09/06 08:57:26;;;;;;;3.77;2.55;;;;;;;21.77;50.38;98141.32;1800903;79;25899;-92
2021/09/06 08:59:58;;;;;;;2.65;2.08;;;;;;;21.83;50.32;98147.14;1778927;79;28397;-95
2021/09/06 09:02:25;;;;;;;5.70;2.40;;;;;;;21.91;49.62;98142.51;1796306;79;25836;-88
2021/09/06 09:05:07;;;;;;;3.70;2.62;;;;;;;22.09;49.30;98144.56;1801394;79;25724;-90
2021/09/06 09:07:37;;;;;;;3.22;2.50;;;;;;;22.28;48.92;98131.99;1801336;79;26547;-88
2021/09/06 09:10:10;;;;;;;3.75;2.62;;;;;;;22.34;48.00;98134.23;1797390;79;25736;-91
2021/09/06 09:12:38;;;;;;;7.08;2.60;;;;;;;22.31;47.78;98131.46;1783645;79;27412;-91
2021/09/06 09:15:08;;;;;;;3.75;2.40;;;;;;;22.32;47.51;98135.87;1797626;79;25824;-90
2021/09/06 09:17:34;;;;;;;4.28;2.47;;;;;;;22.25;47.14;98129.77;1796727;79;25681;-91
2021/09/06 09:20:06;;;;;;;3.40;2.47;;;;;;;22.17;46.94;98135.80;1800908;79;25821;-82
2021/09/06 09:22:37;;;;;;;4.58;3.42;;;;;;;22.21;46.93;98136.92;1769597;79;25792;-87
2021/09/06 09:25:09;;;;;;;5.33;3.92;;;;;;;22.22;46.57;98133.05;1801074;79;27357;-90
2021/09/06 09:27:42;;;;;;;5.87;4.40;;;;;;;22.25;46.97;98129.77;1783900;78;25822;-88
2021/09/06 09:30:32;;;;;;;5.28;4.22;;;;;;;22.29;46.39;98126.77;1796823;79;25797;-88
2021/09/06 09:33:07;;;;;;;7.85;5.78;;;;;;;22.41;46.47;98121.87;1794705;79;27036;-87
2021/09/06 09:35:34;;;;;;;6.33;4.67;;;;;;;22.58;45.91;98119.70;1796780;79;25870;-87
2021/09/06 09:38:07;;;;;;;5.00;4.50;;;;;;;22.88;45.80;98126.41;1794693;79;28169;-84
2021/09/06 09:40:38;;;;;;;6.90;5.00;;;;;;;22.94;45.12;98121.20;1785047;79;25742;-89
2021/09/06 09:43:06;;;;;;;8.63;6.17;;;;;;;22.92;44.72;98124.22;1797967;79;25680;-95
2021/09/06 09:45:33;;;;;;;13.78;8.75;;;;;;;23.09;44.37;98121.19;1798879;79;26107;-94
2021/09/06 09:48:01;;;;;;;8.13;4.75;;;;;;;23.03;44.33;98119.55;1787329;79;26318;-90
2021/09/06 09:50:31;;;;;;;4.58;3.70;;;;;;;23.15;44.67;98113.77;1801859;79;27320;-88
2021/09/06 09:52:58;;;;;;;5.47;3.25;;;;;;;23.33;44.28;98109.89;1798379;79;25790;-91
2021/09/06 09:55:32;;;;;;;3.37;2.75;;;;;;;23.47;43.68;98111.55;1800647;79;25760;-89
2021/09/06 09:57:59;;;;;;;;;;;;;;;23.58;43.07;98109.63;1783842;79;25746;-87
2021/09/06 10:00:26;;;;;;;5.03;3.45;;;;;;;23.58;40.92;98103.56;1784603;78;25723;-90
2021/09/06 10:03:01;;;;;;;4.33;3.10;;;;;;;23.39;42.57;98112.66;1788620;79;27425;-85
2021/09/06 10:05:35;;;;;;;4.10;2.75;;;;;;;23.48;42.41;98110.98;1796622;79;25910;-94
2021/09/06 10:08:03;;;;;;;;;;;;;;;23.43;42.50;98109.61;1786103;79;25790;-92
2021/09/06 10:10:37;;;;;;;2.90;2.52;;;;;;;23.46;41.88;98095.28;1787155;79;26498;-90
2021/09/06 10:13:16;;;;;;;6.45;2.72;;;;;;;23.54;42.39;98098.91;1796761;79;25298;-92
2021/09/06 10:15:59;;;;;;;4.12;2.98;;;;;;;23.66;41.95;98096.67;1801468;79;28178;-89
2021/09/06 10:18:26;;;;;;;4.25;3.10;;;;;;;23.65;41.55;98099.16;1787906;78;25701;-96
2021/09/06 10:20:56;;;;;;;6.22;3.15;;;;;;;23.63;41.55;98096.67;1800344;79;25705;-90
2021/09/06 10:23:25;;;;;;;3.25;2.65;;;;;;;23.48;41.07;98093.08;1800708;79;25760;-94
2021/09/06 10:25:51;;;;;;;5.10;2.95;;;;;;;23.41;41.63;98094.76;1796857;78;25874;-93
2021/09/06 10:28:19;;;;;;;3.62;2.70;;;;;;;23.36;41.28;98093.38;1796661;78;27493;-89
2021/09/06 10:30:53;;;;;;;3.12;2.83;;;;;;;23.34;41.37;98095.57;1764420;79;25325;-92
2021/09/06 10:33:31;;;;;;;3.58;2.77;;;;;;;23.42;41.04;98089.52;1776231;79;25768;-92
2021/09/06 10:36:11;;;;;;;6.92;3.02;;;;;;;23.51;40.60;98088.44;1786609;78;25825;-94
2021/09/06 10:38:48;;;;;;;5.10;3.35;;;;;;;23.46;40.46;98083.71;1783756;79;25749;-93
2021/09/06 10:41:24;;;;;;;3.67;2.90;;;;;;;23.35;40.28;98085.66;1787887;79;27571;-93
2021/09/06 10:43:54;;;;;;;4.65;2.60;;;;;;;23.18;39.69;98085.69;1799652;79;25706;-92
2021/09/06 10:46:26;;;;;;;3.87;2.87;;;;;;;23.01;39.80;98088.70;1785119;79;25782;-92
2021/09/06 10:48:53;;;;;;;7.95;3.65;;;;;;;22.93;40.05;98082.38;1796264;78;26438;-92
2021/09/06 10:51:33;;;;;;;4.85;2.83;;;;;;;23.01;40.06;98081.82;1769486;78;25259;-89
2021/09/06 10:54:04;;;;;;;4.53;2.42;;;;;;;23.08;39.65;98084.29;1769418;78;27536;-95
2021/09/06 10:56:32;;;;;;;2.58;2.37;;;;;;;23.05;40.08;98081.56;1792984;78;25776;-93
2021/09/06 10:59:01;;;;;;;5.60;2.65;;;;;;;23.09;39.68;98075.75;1778684;78;25759;-92
2021/09/06 11:01:28;;;;;;;3.22;2.47;;;;;;;23.10;39.30;98070.52;1779920;79;25910;-89
2021/09/06 11:03:54;;;;;;;4.53;2.42;;;;;;;23.05;39.16;98070.55;1786986;78;25757;-91
2021/09/06 11:06:27;;;;;;;3.25;2.55;;;;;;;22.72;38.42;98064.97;1795529;77;27345;-91
2021/09/06 11:08:54;;;;;;;3.67;2.58;;;;;;;22.65;38.90;98064.42;1843936;77;25775;-96
2021/09/06 11:11:22;;;;;;;4.12;2.60;;;;;;;22.69;38.62;98060.58;1831176;77;25767;-92
2021/09/06 11:13:52;;;;;;;3.15;2.25;;;;;;;22.75;38.47;98072.69;1816706;77;26042;-93
2021/09/06 11:16:19;;;;;;;4.83;2.83;;;;;;;22.80;38.47;98063.65;1846537;77;26395;-94
2021/09/06 11:18:51;;;;;;;3.85;2.40;;;;;;;22.85;38.27;98066.39;1846430;77;27461;-89
2021/09/06 11:21:21;;;;;;;5.25;3.80;;;;;;;22.85;38.04;98058.95;1846956;77;25707;-94
2021/09/06 11:23:50;;;;;;;3.72;2.42;;;;;;;22.82;38.28;98058.13;1846590;77;25842;-90
2021/09/06 11:26:33;;;;;;;6.10;2.70;;;;;;;22.50;38.53;98052.84;1815008;77;25766;-91
2021/09/06 11:28:56;;;;;;;3.25;2.30;;;;;;;22.49;38.98;98058.06;1794369;77;26365;-91
2021/09/06 11:31:24;;;;;;;3.47;2.40;;;;;;;22.53;38.63;98057.80;1831448;77;28128;-94
2021/09/06 11:34:00;;;;;;;4.80;2.40;;;;;;;22.55;38.61;98058.36;1846841;77;26403;-91
2021/09/06 11:36:29;;;;;;;3.62;2.30;;;;;;;22.65;38.36;98054.79;1847256;77;25202;-89
2021/09/06 11:38:55;;;;;;;2.95;2.12;;;;;;;22.76;38.01;98048.22;1819039;77;25708;-91
2021/09/06 11:41:22;;;;;;;2.65;2.02;;;;;;;22.83;38.67;98045.19;1842056;77;25838;-91